createdAt,value
2023-02-14T00:02:21.549Z,101837.84
2023-02-14T00:04:50.124Z,101834.33
2023-02-14T00:07:18.688Z,101828.31
2023-02-14T00:09:47.281Z,101828.71
2023-02-14T00:12:15.862Z,101829.09
2023-02-14T00:15:02.831Z,101829.45
2023-02-14T00:17:31.269Z,101836.84
2023-02-14T00:20:00.178Z,101845.64
2023-02-14T00:22:28.747Z,101845.17
2023-02-14T00:24:58.385Z,101841.41
2023-02-14T00:27:29.848Z,101843.77
2023-02-14T00:30:03.346Z,101844.48
2023-02-14T00:32:32.041Z,101847.84
2023-02-14T00:35:00.951Z,101851.26
2023-02-14T00:37:29.349Z,101853.72
2023-02-14T00:39:57.957Z,101855.45
2023-02-14T00:42:27.300Z,101853.88
2023-02-14T00:44:55.917Z,101858.06
2023-02-14T00:47:24.430Z,101858.23
2023-02-14T00:49:52.945Z,101861.09
2023-02-14T00:52:21.396Z,101863.86
2023-02-14T00:54:49.757Z,101863.13
2023-02-14T00:57:18.258Z,101856.66
2023-02-14T00:59:46.636Z,101862.05
2023-02-14T01:02:15.036Z,101853.09
2023-02-14T01:04:43.423Z,101856.91
2023-02-14T01:07:11.969Z,101855.61
2023-02-14T01:09:40.496Z,101857.86
2023-02-14T01:12:08.944Z,101862.20
2023-02-14T01:14:38.747Z,101855.52
2023-02-14T01:17:07.199Z,101849.80
2023-02-14T01:19:36.931Z,101843.37
2023-02-14T01:22:05.470Z,101846.50
2023-02-14T01:24:34.146Z,101846.02
2023-02-14T01:27:02.557Z,101842.75
2023-02-14T01:29:30.969Z,101846.13
2023-02-14T01:31:59.472Z,101854.15
2023-02-14T01:34:27.897Z,101853.37
2023-02-14T01:36:56.332Z,101861.56
2023-02-14T01:39:24.837Z,101864.12
2023-02-14T01:41:56.053Z,101865.54
2023-02-14T01:44:33.757Z,101862.64
2023-02-14T01:47:05.307Z,101858.95
2023-02-14T01:49:38.766Z,101855.37
2023-02-14T01:52:20.066Z,101856.51
2023-02-14T01:55:10.631Z,101855.36
2023-02-14T01:57:50.693Z,101854.48
2023-02-14T02:00:39.407Z,101862.22
2023-02-14T02:03:09.153Z,101862.42
2023-02-14T02:05:40.618Z,101855.05
2023-02-14T02:08:09.161Z,101851.40
2023-02-14T02:10:38.027Z,101847.30
2023-02-14T02:13:08.851Z,101848.48
2023-02-14T02:15:51.572Z,101842.81
2023-02-14T02:18:52.137Z,101855.17
2023-02-14T02:21:32.851Z,101859.83
2023-02-14T02:24:12.648Z,101858.56
2023-02-14T02:27:03.968Z,101862.45
2023-02-14T02:30:13.148Z,101863.80
2023-02-14T02:32:47.907Z,101861.23
2023-02-14T02:35:29.386Z,101860.80
2023-02-14T02:38:07.578Z,101867.60
2023-02-14T02:40:49.192Z,101872.08
2023-02-14T02:43:49.993Z,101875.23
2023-02-14T02:46:44.727Z,101881.00
2023-02-14T02:50:04.100Z,101886.73
2023-02-14T02:53:04.246Z,101883.69
2023-02-14T02:56:14.067Z,101878.31
2023-02-14T02:59:01.367Z,101881.69
2023-02-14T03:01:34.714Z,101886.73
2023-02-14T03:04:26.606Z,101889.46
2023-02-14T03:06:56.669Z,101888.98
2023-02-14T03:09:28.468Z,101888.95
2023-02-14T03:12:35.549Z,101888.97
2023-02-14T03:15:23.004Z,101886.68
2023-02-14T03:18:07.831Z,101891.89
2023-02-14T03:20:48.347Z,101891.80
2023-02-14T03:23:55.368Z,101893.95
2023-02-14T03:26:39.702Z,101892.55
2023-02-14T03:29:36.241Z,101897.66
2023-02-14T03:32:23.096Z,101895.14
2023-02-14T03:34:51.592Z,101897.73
2023-02-14T03:37:43.480Z,101897.52
2023-02-14T03:40:39.463Z,101898.98
2023-02-14T03:43:12.387Z,101897.70
2023-02-14T03:45:51.959Z,101900.34
2023-02-14T03:48:24.308Z,101904.23
2023-02-14T03:50:54.617Z,101900.77
2023-02-14T03:53:27.655Z,101903.34
2023-02-14T03:56:09.130Z,101899.17
2023-02-14T03:58:48.092Z,101899.56
2023-02-14T04:01:33.639Z,101893.73
2023-02-14T04:04:04.497Z,101893.18
2023-02-14T04:06:33.102Z,101894.26
2023-02-14T04:09:01.775Z,101893.45
2023-02-14T04:11:35.326Z,101891.89
2023-02-14T04:14:04.033Z,101896.55
2023-02-14T04:16:52.577Z,101898.27
2023-02-14T04:19:23.716Z,101890.81
2023-02-14T04:21:53.295Z,101890.08
2023-02-14T04:24:21.805Z,101893.90
2023-02-14T04:27:10.913Z,101892.83
2023-02-14T04:29:43.712Z,101890.59
2023-02-14T04:32:15.152Z,101894.43
2023-02-14T04:34:44.370Z,101897.86
2023-02-14T04:37:14.055Z,101905.90
2023-02-14T04:39:42.550Z,101905.88
2023-02-14T04:42:11.596Z,101916.49
2023-02-14T04:44:40.214Z,101918.59
2023-02-14T04:47:08.762Z,101919.30
2023-02-14T04:49:37.463Z,101919.87
2023-02-14T04:52:06.135Z,101924.30
2023-02-14T04:54:34.853Z,101925.70
2023-02-14T04:57:03.246Z,101924.86
2023-02-14T04:59:31.981Z,101925.17
2023-02-14T05:02:00.665Z,101927.97
2023-02-14T05:04:29.277Z,101931.70
2023-02-14T05:06:57.829Z,101935.56
2023-02-14T05:09:26.348Z,101938.64
2023-02-14T05:11:54.866Z,101943.04
2023-02-14T05:14:23.329Z,101939.58
2023-02-14T05:16:51.798Z,101942.47
2023-02-14T05:19:20.408Z,101947.10
2023-02-14T05:21:51.215Z,101948.00
2023-02-14T05:24:19.617Z,101949.55
2023-02-14T05:26:48.200Z,101942.35
2023-02-14T05:29:16.926Z,101944.11
2023-02-14T05:31:46.439Z,101948.13
2023-02-14T05:34:15.027Z,101944.56
2023-02-14T05:36:43.633Z,101941.17
2023-02-14T05:39:14.798Z,101950.46
2023-02-14T05:41:43.339Z,101958.46
2023-02-14T05:44:11.833Z,101956.65
2023-02-14T05:46:40.512Z,101955.17
2023-02-14T05:49:08.890Z,101952.71
2023-02-14T05:51:37.369Z,101954.90
2023-02-14T05:54:06.054Z,101957.27
2023-02-14T05:56:34.537Z,101953.63
2023-02-14T05:59:03.155Z,101957.55
2023-02-14T06:01:31.616Z,101959.98
2023-02-14T06:04:00.222Z,101964.48
2023-02-14T06:06:28.798Z,101967.00
2023-02-14T06:08:57.396Z,101966.54
2023-02-14T06:11:25.943Z,101966.65
2023-02-14T06:13:54.391Z,101975.98
2023-02-14T06:16:23.026Z,101980.52
2023-02-14T06:18:51.466Z,101979.31
2023-02-14T06:21:19.868Z,101980.40
2023-02-14T06:23:48.425Z,101979.45
2023-02-14T06:26:16.920Z,101986.21
2023-02-14T06:28:45.237Z,101984.89
2023-02-14T06:31:17.912Z,101981.27
2023-02-14T06:33:46.437Z,101982.56
2023-02-14T06:36:15.149Z,101991.09
2023-02-14T06:38:43.884Z,101993.53
2023-02-14T06:41:12.829Z,101992.83
2023-02-14T06:43:42.009Z,101995.16
2023-02-14T06:46:10.940Z,101992.88
2023-02-14T06:48:39.640Z,101995.87
2023-02-14T06:51:08.512Z,101994.77
2023-02-14T06:53:37.478Z,101994.44
2023-02-14T06:56:06.412Z,101989.67
2023-02-14T06:58:35.776Z,101993.73
2023-02-14T07:01:05.644Z,101995.22
2023-02-14T07:03:34.850Z,101992.64
2023-02-14T07:06:03.827Z,101989.08
2023-02-14T07:08:32.591Z,101993.44
2023-02-14T07:11:01.702Z,101998.02
2023-02-14T07:13:31.106Z,101996.98
2023-02-14T07:16:00.729Z,101995.19
2023-02-14T07:18:30.030Z,101995.73
2023-02-14T07:20:59.669Z,102002.42
2023-02-14T07:23:31.477Z,102004.89
2023-02-14T07:26:01.689Z,102008.02
2023-02-14T07:28:34.415Z,102012.00
2023-02-14T07:31:08.204Z,102013.04
2023-02-14T07:33:44.449Z,102013.48
2023-02-14T07:36:52.476Z,102015.31
2023-02-14T07:39:37.165Z,102017.07
2023-02-14T07:42:39.438Z,102016.67
2023-02-14T07:45:22.020Z,102021.61
2023-02-14T07:47:55.488Z,102022.98
2023-02-14T07:50:24.895Z,102019.23
2023-02-14T07:52:54.111Z,102015.80
2023-02-14T07:55:26.815Z,102023.93
2023-02-14T07:57:57.846Z,102028.90
2023-02-14T08:00:27.634Z,102037.44
2023-02-14T08:02:56.651Z,102039.48
2023-02-14T08:05:25.498Z,102040.08
2023-02-14T08:08:09.553Z,102044.92
2023-02-14T08:11:00.685Z,102054.52
2023-02-14T08:13:30.617Z,102053.37
2023-02-14T08:16:06.152Z,102056.11
2023-02-14T08:18:41.295Z,102058.96
2023-02-14T08:21:11.914Z,102061.86
2023-02-14T08:23:40.659Z,102062.66
2023-02-14T08:26:09.747Z,102066.58
2023-02-14T08:28:39.349Z,102063.68
2023-02-14T08:31:09.055Z,102063.11
2023-02-14T08:33:38.305Z,102057.09
2023-02-14T08:36:07.802Z,102058.45
2023-02-14T08:38:36.636Z,102058.61
2023-02-14T08:41:08.327Z,102057.16
2023-02-14T08:43:38.792Z,102062.96
2023-02-14T08:46:07.728Z,102065.85
2023-02-14T08:48:39.219Z,102067.60
2023-02-14T08:51:09.645Z,102066.30
2023-02-14T08:53:40.203Z,102065.42
2023-02-14T08:56:12.262Z,102066.52
2023-02-14T08:58:42.003Z,102068.85
2023-02-14T09:01:13.505Z,102068.33
2023-02-14T09:03:42.526Z,102073.64
2023-02-14T09:06:15.056Z,102076.43
2023-02-14T09:08:45.356Z,102071.98
2023-02-14T09:11:18.959Z,102068.05
2023-02-14T09:13:48.645Z,102067.05
2023-02-14T09:16:19.632Z,102069.49
2023-02-14T09:18:49.506Z,102073.77
2023-02-14T09:21:21.384Z,102076.77
2023-02-14T09:23:50.232Z,102077.19
2023-02-14T09:26:22.004Z,102074.83
2023-02-14T09:28:51.094Z,102077.44
2023-02-14T09:31:22.822Z,102079.80
2023-02-14T09:33:52.668Z,102078.06
2023-02-14T09:36:21.871Z,102074.16
2023-02-14T09:38:50.517Z,102069.83
2023-02-14T09:41:32.033Z,102071.92
2023-02-14T09:44:39.612Z,102072.98
2023-02-14T09:47:21.299Z,102075.30
2023-02-14T09:49:56.613Z,102075.11
2023-02-14T09:52:48.106Z,102075.98
2023-02-14T09:55:31.808Z,102076.81
2023-02-14T09:58:18.613Z,102079.08
2023-02-14T10:01:23.931Z,102084.99
2023-02-14T10:04:32.838Z,102082.86
2023-02-14T10:07:55.497Z,102086.49
2023-02-14T10:10:39.522Z,102090.10
2023-02-14T10:14:56.198Z,102088.44
2023-02-14T10:17:35.232Z,102086.48
2023-02-14T10:20:46.800Z,102085.70
2023-02-14T10:23:43.226Z,102090.11
2023-02-14T10:30:33.931Z,102080.13
2023-02-14T10:37:18.877Z,102076.27
2023-02-14T10:43:32.681Z,102077.03
2023-02-14T10:46:09.504Z,102078.21
2023-02-14T10:48:47.767Z,102081.46
2023-02-14T10:51:33.846Z,102081.39
2023-02-14T10:54:22.970Z,102076.50
2023-02-14T10:57:03.376Z,102077.59
2023-02-14T11:00:34.849Z,102073.09
2023-02-14T11:06:47.727Z,102076.71
2023-02-14T11:06:59.049Z,102073.35
2023-02-14T11:09:44.871Z,102075.73
2023-02-14T11:13:13.383Z,102077.50
2023-02-14T11:28:31.349Z,102071.85
2023-02-14T11:35:21.808Z,102070.45
2023-02-14T11:37:54.651Z,102065.96
2023-02-14T11:40:40.763Z,102062.72
2023-02-14T11:43:56.465Z,102061.61
2023-02-14T11:46:41.309Z,102061.41
2023-02-14T11:50:29.901Z,102062.45
2023-02-14T11:53:29.400Z,102054.97
2023-02-14T11:56:21.355Z,102050.83
2023-02-14T12:03:49.199Z,102049.58
2023-02-14T12:10:42.312Z,102040.48
2023-02-14T12:38:40.988Z,102035.56
2023-02-14T12:41:33.750Z,102026.95
2023-02-14T12:44:27.980Z,102028.33
2023-02-14T12:47:32.288Z,102023.55
2023-02-14T12:50:36.244Z,102024.55
2023-02-14T12:53:22.181Z,102029.51
2023-02-14T12:56:03.812Z,102024.35
2023-02-14T12:58:36.187Z,102025.61
2023-02-14T13:01:29.080Z,102028.31
2023-02-14T13:04:44.413Z,102025.73
2023-02-14T13:07:18.662Z,102025.09
2023-02-14T13:10:13.029Z,102024.29
2023-02-14T13:12:40.579Z,102024.56
2023-02-14T13:15:41.987Z,102023.23
2023-02-14T13:18:56.492Z,102021.10
2023-02-14T13:27:27.971Z,102032.94
2023-02-14T13:30:03.914Z,102035.73
2023-02-14T13:32:39.711Z,102034.66
2023-02-14T13:35:17.885Z,102032.45
2023-02-14T13:44:03.208Z,102034.50
2023-02-14T13:46:35.711Z,102037.59
2023-02-14T13:49:37.402Z,102035.56
2023-02-14T13:52:06.966Z,102029.20
2023-02-14T13:54:48.159Z,102032.61
2023-02-14T13:57:39.640Z,102025.09
2023-02-14T14:00:17.855Z,102023.74
2023-02-14T14:02:57.257Z,102023.14
2023-02-14T14:05:33.104Z,102019.52
2023-02-14T14:08:32.470Z,102014.79
2023-02-14T14:11:10.683Z,102018.38
2023-02-14T14:13:42.878Z,102018.88
2023-02-14T14:16:21.884Z,102015.80
2023-02-14T14:18:53.402Z,102017.52
2023-02-14T14:21:30.974Z,102019.00
2023-02-14T14:24:20.183Z,102021.67
2023-02-14T14:27:12.926Z,102021.90
2023-02-14T14:30:13.996Z,102018.48
2023-02-14T14:32:42.593Z,102021.34
2023-02-14T14:35:21.935Z,102024.28
2023-02-14T14:37:54.809Z,102028.92
2023-02-14T14:40:39.004Z,102024.96
2023-02-14T14:43:14.663Z,102028.81
2023-02-14T14:45:47.030Z,102031.19
2023-02-14T14:48:39.435Z,102032.38
2023-02-14T14:51:20.437Z,102032.20
2023-02-14T14:53:53.112Z,102034.89
2023-02-14T14:56:25.487Z,102032.92
2023-02-14T14:58:55.001Z,102032.08
2023-02-14T15:01:40.782Z,102031.83
2023-02-14T15:04:25.863Z,102028.15
2023-02-14T15:06:57.822Z,102028.98
2023-02-14T15:09:29.597Z,102031.48
2023-02-14T15:12:20.206Z,102026.52
2023-02-14T15:14:54.975Z,102020.45
2023-02-14T15:17:31.141Z,102024.62
2023-02-14T15:20:05.204Z,102028.20
2023-02-14T15:22:42.657Z,102030.50
2023-02-14T15:25:17.468Z,102029.02
2023-02-14T15:27:46.486Z,102031.81
2023-02-14T15:30:26.974Z,102033.77
2023-02-14T15:32:57.045Z,102033.42
2023-02-14T15:35:29.556Z,102035.34
2023-02-14T15:38:01.940Z,102033.13
2023-02-14T15:40:33.672Z,102035.96
2023-02-14T15:43:15.909Z,102036.45
2023-02-14T15:45:48.170Z,102035.46
2023-02-14T15:48:19.978Z,102035.38
2023-02-14T15:50:53.047Z,102035.98
2023-02-14T15:53:43.216Z,102037.84
2023-02-14T15:56:14.763Z,102037.89
2023-02-14T15:58:45.425Z,102039.44
2023-02-14T16:01:14.305Z,102042.65
2023-02-14T16:03:51.854Z,102044.95
2023-02-14T16:07:03.159Z,102048.27
2023-02-14T16:09:36.107Z,102053.89
2023-02-14T16:12:30.835Z,102057.13
2023-02-14T16:15:27.706Z,102056.09
2023-02-14T16:18:08.285Z,102056.19
2023-02-14T16:20:52.527Z,102055.41
2023-02-14T16:23:24.496Z,102056.90
2023-02-14T16:25:54.405Z,102060.44
2023-02-14T16:28:23.362Z,102059.27
2023-02-14T16:30:57.522Z,102062.61
2023-02-14T16:33:31.178Z,102064.20
2023-02-14T16:36:09.573Z,102066.80
2023-02-14T16:38:43.338Z,102070.71
2023-02-14T16:41:18.147Z,102075.48
2023-02-14T16:43:47.795Z,102071.55
2023-02-14T16:46:19.472Z,102070.61
2023-02-14T16:48:52.877Z,102068.30
2023-02-14T16:51:23.964Z,102067.80
2023-02-14T16:53:54.256Z,102066.44
2023-02-14T16:56:33.903Z,102071.29
2023-02-14T16:59:02.464Z,102073.30
2023-02-14T17:01:32.384Z,102069.92
2023-02-14T17:04:01.314Z,102074.34
2023-02-14T17:06:32.658Z,102076.10
2023-02-14T17:09:07.950Z,102075.84
2023-02-14T17:11:40.615Z,102077.94
2023-02-14T17:14:14.353Z,102078.86
2023-02-14T17:16:43.344Z,102082.52
2023-02-14T17:19:12.221Z,102085.91
2023-02-14T17:21:41.806Z,102087.73
2023-02-14T17:24:11.547Z,102087.79
2023-02-14T17:27:00.711Z,102088.32
2023-02-14T17:29:34.717Z,102091.36
2023-02-14T17:32:04.611Z,102093.42
2023-02-14T17:34:35.466Z,102091.63
2023-02-14T17:37:06.358Z,102092.80
2023-02-14T17:39:38.900Z,102091.58
2023-02-14T17:42:11.972Z,102095.36
2023-02-14T17:44:41.758Z,102098.98
2023-02-14T17:47:11.692Z,102094.02
2023-02-14T17:50:05.891Z,102092.48
2023-02-14T17:52:51.627Z,102094.42
2023-02-14T17:55:28.298Z,102093.05
2023-02-14T17:57:56.958Z,102096.98
2023-02-14T18:00:25.950Z,102095.13
2023-02-14T18:02:55.247Z,102091.52
2023-02-14T18:05:25.265Z,102093.79
2023-02-14T18:07:55.949Z,102091.40
2023-02-14T18:10:24.546Z,102088.23
2023-02-14T18:12:53.372Z,102093.59
2023-02-14T18:15:23.007Z,102092.51
2023-02-14T18:17:52.719Z,102086.92
2023-02-14T18:20:21.861Z,102087.94
2023-02-14T18:22:50.531Z,102088.86
2023-02-14T18:25:19.818Z,102086.98
2023-02-14T18:27:49.117Z,102090.88
2023-02-14T18:30:18.402Z,102089.47
2023-02-14T18:32:52.406Z,102091.40
2023-02-14T18:35:24.953Z,102090.62
2023-02-14T18:37:54.052Z,102090.49
2023-02-14T18:40:25.651Z,102089.23
2023-02-14T18:42:54.895Z,102087.45
2023-02-14T18:45:23.460Z,102089.00
2023-02-14T18:47:52.253Z,102088.45
